Time;durP1;ratioP1;P1;durP2;ratioP2;P2;SDS_P1;SDS_P2;PMS_P1;PMS_P2;Temp;Humidity;BMP_temperature;BMP_pressure;BME280_temperature;BME280_humidity;BME280_pressure;Samples;Min_cycle;Max_cycle;Signal;HPM_P1;HPM_P2
2024/01/16 00:01:27;;;;;;;9.07;2.97;;;;;2.20;95618.00;;;;5034478;28;20459;-87
2024/01/16 00:04:17;;;;;;;11.60;3.57;;;;;2.30;95620.00;;;;5038393;28;20424;-87
2024/01/16 00:07:06;;;;;;;9.37;2.97;;;;;2.20;95612.00;;;;5029862;28;20774;-87
2024/01/16 00:09:55;;;;;;;13.40;4.10;;;;;2.60;95638.00;;;;5041725;28;20431;-86
2024/01/16 00:12:44;;;;;;;17.50;5.20;;;;;2.90;95636.00;;;;5024513;28;20497;-87
2024/01/16 00:15:35;;;;;;;15.60;4.43;;;;;2.80;95645.00;;;;5035678;28;20420;-87
2024/01/16 00:18:24;;;;;;;15.40;4.53;;;;;2.50;95634.00;;;;5029326;28;20450;-88
2024/01/16 00:21:14;;;;;;;10.40;3.30;;;;;2.70;95636.00;;;;5038446;28;20455;-85
2024/01/16 00:24:03;;;;;;;13.93;4.07;;;;;2.90;95649.00;;;;5030624;28;20956;-88
2024/01/16 00:26:52;;;;;;;13.10;3.83;;;;;2.70;95649.00;;;;5031941;28;20415;-87
2024/01/16 00:29:41;;;;;;;16.60;5.40;;;;;2.70;95648.00;;;;5036128;28;20459;-86
2024/01/16 00:32:32;;;;;;;19.13;9.10;;;;;3.10;95658.00;;;;5031458;28;20463;-87
2024/01/16 00:35:21;;;;;;;15.03;6.90;;;;;2.70;95656.00;;;;5019148;28;20946;-88
2024/01/16 00:38:10;;;;;;;56.20;29.53;;;;;2.70;95656.00;;;;5026177;28;20466;-87
2024/01/16 00:40:59;;;;;;;28.60;25.83;;;;;2.70;95663.00;;;;5039904;28;20505;-87
2024/01/16 00:43:48;;;;;;;59.03;41.17;;;;;2.80;95667.00;;;;5036720;28;20467;-86
2024/01/16 00:46:38;;;;;;;49.83;34.47;;;;;2.60;95665.00;;;;5026634;28;20419;-86
2024/01/16 00:49:28;;;;;;;21.40;14.27;;;;;2.90;95677.00;;;;5026731;28;20432;-88
2024/01/16 00:52:18;;;;;;;124.33;58.50;;;;;2.90;95687.00;;;;5028552;28;20456;-85
2024/01/16 00:55:07;;;;;;;81.70;45.13;;;;;2.90;95670.00;;;;5029177;28;20433;-88
2024/01/16 00:57:56;;;;;;;133.13;56.20;;;;;2.90;95684.00;;;;5037681;28;20447;-88
2024/01/16 01:00:46;;;;;;;219.60;82.57;;;;;2.20;95684.00;;;;5029047;28;20440;-88
2024/01/16 01:03:35;;;;;;;188.50;78.00;;;;;2.60;95696.00;;;;5031637;28;20438;-88
2024/01/16 01:06:26;;;;;;;110.93;52.53;;;;;2.40;95701.00;;;;5024015;28;20433;-87
2024/01/16 01:09:15;;;;;;;171.20;66.47;;;;;2.60;95711.00;;;;5040222;28;20434;-87
2024/01/16 01:12:04;;;;;;;117.70;44.63;;;;;2.70;95718.00;;;;5030245;28;20464;-87
2024/01/16 01:14:54;;;;;;;13.93;4.23;;;;;2.50;95721.00;;;;5034069;28;20430;-86
2024/01/16 01:17:43;;;;;;;187.70;67.87;;;;;2.90;95734.00;;;;5030848;28;20420;-87
2024/01/16 01:20:33;;;;;;;210.63;70.47;;;;;2.40;95731.00;;;;5026299;28;20451;-85
2024/01/16 01:23:23;;;;;;;158.83;58.87;;;;;3.10;95732.00;;;;5035323;28;20427;-87
2024/01/16 01:26:13;;;;;;;180.37;69.37;;;;;3.00;95735.00;;;;5051130;28;20648;-85
2024/01/16 01:29:03;;;;;;;196.77;67.90;;;;;2.90;95728.00;;;;5027127;28;20766;-87
2024/01/16 01:31:52;;;;;;;253.20;82.33;;;;;2.70;95745.00;;;;5031450;28;20463;-88
2024/01/16 01:34:43;;;;;;;227.60;66.47;;;;;2.50;95743.00;;;;5028285;28;20970;-87
2024/01/16 01:37:32;;;;;;;221.50;69.83;;;;;2.80;95744.00;;;;5021978;28;20456;-87
2024/01/16 01:40:23;;;;;;;210.90;80.27;;;;;2.80;95743.00;;;;5030476;28;20455;-86
2024/01/16 01:43:20;;;;;;;34.70;13.47;;;;;2.50;95750.00;;;;5027220;28;20433;-88
2024/01/16 01:46:14;;;;;;;12.33;7.33;;;;;2.50;95749.00;;;;5024183;28;20420;-88
2024/01/16 01:49:04;;;;;;;244.13;79.77;;;;;2.50;95754.00;;;;5032436;28;20431;-88
2024/01/16 01:51:54;;;;;;;111.63;52.00;;;;;2.20;95746.00;;;;5035451;28;20447;-87
2024/01/16 01:54:43;;;;;;;114.47;42.80;;;;;2.20;95739.00;;;;5027030;28;20441;-87
2024/01/16 01:57:35;;;;;;;69.03;25.20;;;;;2.20;95755.00;;;;5022634;28;20424;-87
2024/01/16 02:00:24;;;;;;;11.60;3.60;;;;;2.20;95754.00;;;;5032408;28;20447;-86
2024/01/16 02:03:13;;;;;;;227.90;76.20;;;;;2.20;95751.00;;;;5037066;28;20413;-86
2024/01/16 02:06:03;;;;;;;244.07;73.03;;;;;2.10;95764.00;;;;5026192;28;20443;-87
2024/01/16 02:08:52;;;;;;;27.13;8.30;;;;;1.80;95761.00;;;;5028504;28;20435;-86
2024/01/16 02:11:42;;;;;;;145.77;68.20;;;;;1.70;95764.00;;;;5025698;28;20461;-86
2024/01/16 02:14:32;;;;;;;181.03;70.00;;;;;1.60;95764.00;;;;5036497;28;20558;-85
2024/01/16 02:17:22;;;;;;;189.20;66.77;;;;;1.70;95772.00;;;;5033595;28;21000;-87
2024/01/16 02:20:12;;;;;;;172.77;65.07;;;;;1.60;95771.00;;;;5022079;28;20441;-86
2024/01/16 02:23:04;;;;;;;175.20;67.83;;;;;1.80;95781.00;;;;5023302;28;20437;-86
2024/01/16 02:25:55;;;;;;;130.03;46.67;;;;;1.40;95784.00;;;;5014366;28;20428;-86
2024/01/16 02:28:44;;;;;;;207.93;75.77;;;;;1.30;95790.00;;;;5033203;28;20512;-86
2024/01/16 02:31:33;;;;;;;28.67;23.03;;;;;1.10;95783.00;;;;5029328;28;20809;-87
2024/01/16 02:34:23;;;;;;;208.63;69.07;;;;;1.00;95774.00;;;;5032309;28;20562;-88
2024/01/16 02:37:12;;;;;;;165.73;64.87;;;;;1.60;95781.00;;;;5025763;28;20428;-85
2024/01/16 02:40:05;;;;;;;153.83;64.90;;;;;1.50;95788.00;;;;5022532;28;20429;-89
2024/01/16 02:42:55;;;;;;;165.63;64.57;;;;;1.50;95784.00;;;;5036685;28;20424;-87
2024/01/16 02:45:45;;;;;;;148.97;63.00;;;;;1.40;95787.00;;;;5025173;28;20426;-87
2024/01/16 02:48:34;;;;;;;148.93;61.10;;;;;1.50;95780.00;;;;5024430;28;20440;-88
2024/01/16 02:51:23;;;;;;;63.67;40.23;;;;;1.40;95792.00;;;;5026532;28;20471;-88
2024/01/16 02:54:12;;;;;;;16.23;6.20;;;;;1.40;95794.00;;;;5027233;28;20472;-86
2024/01/16 02:57:01;;;;;;;14.80;6.97;;;;;0.90;95803.00;;;;5020964;28;20440;-89
2024/01/16 02:59:52;;;;;;;164.77;71.50;;;;;1.30;95798.00;;;;5020589;28;21013;-86
2024/01/16 03:02:41;;;;;;;32.63;20.47;;;;;1.10;95804.00;;;;5028854;28;20443;-88
2024/01/16 03:05:30;;;;;;;15.47;6.13;;;;;0.40;95801.00;;;;5021947;28;20436;-87
2024/01/16 03:08:19;;;;;;;38.10;17.10;;;;;1.10;95812.00;;;;5023240;28;20490;-87
2024/01/16 03:11:08;;;;;;;16.07;9.73;;;;;1.20;95823.00;;;;5024843;28;20451;-86
2024/01/16 03:13:58;;;;;;;26.97;16.17;;;;;1.20;95818.00;;;;5029467;28;20479;-88
2024/01/16 03:16:48;;;;;;;45.50;32.93;;;;;1.10;95831.00;;;;5024398;28;20440;-86
2024/01/16 03:19:38;;;;;;;25.00;9.57;;;;;1.30;95829.00;;;;5032760;28;20437;-88
2024/01/16 03:22:27;;;;;;;154.90;66.37;;;;;0.70;95837.00;;;;5024254;28;20438;-87
2024/01/16 03:25:16;;;;;;;53.83;36.50;;;;;1.10;95829.00;;;;5027591;28;20424;-87
2024/01/16 03:28:07;;;;;;;106.27;54.50;;;;;1.10;95832.00;;;;5032629;28;20799;-86
2024/01/16 03:30:57;;;;;;;152.70;63.87;;;;;1.20;95836.00;;;;5029895;28;20448;-86
2024/01/16 03:33:47;;;;;;;131.10;61.07;;;;;1.00;95840.00;;;;5027683;28;20592;-87
2024/01/16 03:36:36;;;;;;;121.77;58.60;;;;;0.70;95835.00;;;;5026872;28;20943;-86
2024/01/16 03:39:25;;;;;;;104.47;51.77;;;;;0.80;95857.00;;;;5027986;28;20424;-88
2024/01/16 03:42:15;;;;;;;72.23;45.10;;;;;0.80;95851.00;;;;5027609;28;20806;-86
2024/01/16 03:45:04;;;;;;;21.87;10.67;;;;;0.80;95848.00;;;;5031490;28;20424;-88
2024/01/16 03:47:53;;;;;;;29.17;25.13;;;;;0.80;95851.00;;;;5032747;28;20425;-85
2024/01/16 03:50:45;;;;;;;72.30;43.93;;;;;0.80;95865.00;;;;5052658;28;20458;-86
2024/01/16 03:53:34;;;;;;;74.27;41.30;;;;;0.90;95867.00;;;;5024571;28;20479;-87
2024/01/16 03:56:24;;;;;;;98.53;50.53;;;;;0.90;95857.00;;;;5026223;28;20425;-87
2024/01/16 03:59:13;;;;;;;63.87;31.17;;;;;0.70;95863.00;;;;5028602;28;20441;-85
2024/01/16 04:02:03;;;;;;;11.37;3.43;;;;;0.80;95874.00;;;;5027994;28;20455;-85
2024/01/16 04:04:52;;;;;;;19.47;8.33;;;;;0.90;95872.00;;;;5032121;28;20441;-88
2024/01/16 04:07:42;;;;;;;14.37;4.23;;;;;1.10;95876.00;;;;5028482;28;20432;-88
2024/01/16 04:10:32;;;;;;;8.83;2.80;;;;;1.00;95882.00;;;;5018552;28;20824;-87
2024/01/16 04:13:21;;;;;;;9.90;3.17;;;;;0.90;95883.00;;;;5025470;28;20416;-88
2024/01/16 04:16:10;;;;;;;8.77;2.80;;;;;0.80;95882.00;;;;5024612;28;20435;-87
2024/01/16 04:18:59;;;;;;;10.07;3.07;;;;;0.90;95880.00;;;;5030584;28;20947;-87
2024/01/16 04:21:48;;;;;;;25.03;7.17;;;;;0.30;95882.00;;;;5030066;28;20460;-87
2024/01/16 04:24:39;;;;;;;24.93;7.03;;;;;0.50;95878.00;;;;5033972;28;20443;-86
2024/01/16 04:27:28;;;;;;;8.80;2.83;;;;;0.20;95883.00;;;;5025023;28;20436;-87
2024/01/16 04:30:20;;;;;;;56.63;21.87;;;;;0.20;95882.00;;;;5030852;28;20444;-88
2024/01/16 04:33:09;;;;;;;13.30;4.13;;;;;0.20;95878.00;;;;5022514;28;20602;-87
2024/01/16 04:35:58;;;;;;;10.33;3.20;;;;;0.00;95888.00;;;;5025909;28;20916;-87
2024/01/16 04:38:47;;;;;;;13.57;4.03;;;;;0.00;95885.00;;;;5033927;28;20447;-84
2024/01/16 04:41:38;;;;;;;14.13;4.10;;;;;0.00;95892.00;;;;5043013;28;20460;-86
2024/01/16 04:44:27;;;;;;;11.87;3.60;;;;;0.10;95899.00;;;;5041614;28;20784;-85
2024/01/16 04:47:16;;;;;;;12.37;3.87;;;;;0.00;95911.00;;;;5045930;28;20428;-84
2024/01/16 04:50:07;;;;;;;63.00;31.50;;;;;-0.80;95903.00;;;;5034908;28;20445;-85
2024/01/16 04:52:57;;;;;;;146.80;59.27;;;;;-1.40;95914.00;;;;5035964;28;20429;-85
2024/01/16 04:55:46;;;;;;;151.87;63.77;;;;;-0.80;95906.00;;;;5031583;28;20487;-85
2024/01/16 04:58:36;;;;;;;17.63;8.70;;;;;-0.50;95919.00;;;;5040498;28;20440;-86
2024/01/16 05:01:26;;;;;;;150.90;53.37;;;;;-0.90;95918.00;;;;5033951;28;20461;-86
2024/01/16 05:04:15;;;;;;;104.07;52.00;;;;;-1.10;95924.00;;;;5029902;28;21004;-85
2024/01/16 05:07:04;;;;;;;80.03;40.57;;;;;-0.60;95922.00;;;;5019387;28;20439;-85
2024/01/16 05:09:55;;;;;;;102.33;50.00;;;;;-0.50;95936.00;;;;5019715;28;21544;-87
2024/01/16 05:12:44;;;;;;;133.13;56.70;;;;;-0.90;95929.00;;;;5037454;28;20437;-85
2024/01/16 05:15:34;;;;;;;84.17;43.37;;;;;-1.50;95916.00;;;;5027180;28;20473;-86
2024/01/16 05:18:23;;;;;;;78.60;43.97;;;;;-1.20;95927.00;;;;5023217;28;20440;-87
2024/01/16 05:21:13;;;;;;;91.83;47.47;;;;;-0.90;95930.00;;;;5021921;28;20450;-86
2024/01/16 05:24:02;;;;;;;91.77;47.83;;;;;-2.00;95935.00;;;;5014918;28;20937;-85
2024/01/16 05:26:51;;;;;;;59.43;39.37;;;;;-1.60;95932.00;;;;5017823;28;20437;-86
2024/01/16 05:29:42;;;;;;;60.30;38.93;;;;;-1.60;95936.00;;;;5013399;28;20437;-85
2024/01/16 05:32:34;;;;;;;85.07;44.60;;;;;-0.70;95936.00;;;;5018277;28;20466;-87
2024/01/16 05:35:24;;;;;;;28.87;14.70;;;;;-0.70;95938.00;;;;5013699;28;20476;-87
2024/01/16 05:38:13;;;;;;;12.17;3.80;;;;;-1.10;95938.00;;;;5014967;28;20480;-88
2024/01/16 05:41:03;;;;;;;8.80;2.97;;;;;-0.80;95945.00;;;;5013548;28;20741;-86
2024/01/16 05:43:52;;;;;;;17.47;5.23;;;;;-1.20;95946.00;;;;5011371;28;20439;-87
2024/01/16 05:46:41;;;;;;;16.40;5.00;;;;;-0.90;95954.00;;;;5011836;28;20938;-86
2024/01/16 05:49:32;;;;;;;9.67;3.07;;;;;-1.20;95960.00;;;;5015122;28;20422;-86
2024/01/16 05:52:21;;;;;;;10.70;3.43;;;;;-1.20;95964.00;;;;5012699;28;20477;-85
2024/01/16 05:55:10;;;;;;;26.00;10.03;;;;;-1.30;95971.00;;;;5007634;28;20460;-88
2024/01/16 05:58:00;;;;;;;12.17;3.87;;;;;-1.10;95965.00;;;;5014095;28;20457;-86
2024/01/16 06:00:49;;;;;;;70.10;26.53;;;;;-0.60;95967.00;;;;5010362;28;20450;-87
2024/01/16 06:03:38;;;;;;;14.70;4.57;;;;;-0.50;95977.00;;;;5010534;28;20463;-87
2024/01/16 06:06:29;;;;;;;8.53;2.87;;;;;-0.50;95979.00;;;;5010133;28;22829;-84
2024/01/16 06:09:18;;;;;;;10.23;3.20;;;;;-0.50;95984.00;;;;5016241;28;20575;-86
2024/01/16 06:12:08;;;;;;;12.83;4.00;;;;;-1.20;95991.00;;;;5017030;28;20467;-86
2024/01/16 06:14:58;;;;;;;13.73;4.17;;;;;-1.20;95998.00;;;;5023404;28;20991;-85
2024/01/16 06:17:47;;;;;;;28.63;9.40;;;;;-1.60;95992.00;;;;5014315;28;20431;-85
2024/01/16 06:20:36;;;;;;;8.93;2.70;;;;;-1.20;95984.00;;;;5006268;28;20981;-85
2024/01/16 06:23:27;;;;;;;11.60;3.53;;;;;-1.00;95997.00;;;;5011827;28;20428;-86
2024/01/16 06:26:16;;;;;;;80.47;39.23;;;;;-1.60;95996.00;;;;5004963;28;20444;-85
2024/01/16 06:29:05;;;;;;;97.40;49.13;;;;;-1.10;96009.00;;;;5015557;28;20440;-86
2024/01/16 06:31:57;;;;;;;49.50;15.30;;;;;-1.10;96018.00;;;;5013068;28;21719;-86
2024/01/16 06:34:46;;;;;;;104.87;54.60;;;;;-1.40;96012.00;;;;5020334;28;20456;-86
2024/01/16 06:37:36;;;;;;;145.33;77.37;;;;;-1.20;96013.00;;;;5004823;28;20838;-86
2024/01/16 06:40:26;;;;;;;78.33;43.87;;;;;-1.70;96028.00;;;;5013574;28;20468;-85
2024/01/16 06:43:16;;;;;;;54.63;31.97;;;;;-1.50;96023.00;;;;5013234;28;20737;-85
2024/01/16 06:46:06;;;;;;;85.90;46.10;;;;;-1.50;96031.00;;;;5022672;28;20428;-86
2024/01/16 06:48:55;;;;;;;98.47;51.37;;;;;-1.80;96033.00;;;;5021092;28;21928;-85
2024/01/16 06:51:44;;;;;;;67.80;40.83;;;;;-1.50;96035.00;;;;5029128;28;20458;-85
2024/01/16 06:54:33;;;;;;;53.40;26.57;;;;;-1.50;96038.00;;;;5002255;28;20826;-85
2024/01/16 06:57:24;;;;;;;101.93;41.83;;;;;-1.80;96050.00;;;;5003475;28;20439;-85
2024/01/16 07:00:14;;;;;;;124.40;60.63;;;;;-1.80;96049.00;;;;4999891;28;20444;-85
2024/01/16 07:03:04;;;;;;;100.43;35.73;;;;;-1.60;96055.00;;;;4999995;28;20428;-85
2024/01/16 07:05:53;;;;;;;155.90;64.20;;;;;-1.50;96060.00;;;;5004144;28;20439;-86
2024/01/16 07:08:42;;;;;;;184.37;101.27;;;;;-1.40;96062.00;;;;4999784;28;20430;-85
2024/01/16 07:11:32;;;;;;;88.20;49.60;;;;;-1.50;96067.00;;;;4994647;28;20600;-85
2024/01/16 07:14:22;;;;;;;84.10;39.10;;;;;-1.30;96072.00;;;;5016561;28;20433;-85
2024/01/16 07:17:11;;;;;;;76.00;46.90;;;;;-1.70;96076.00;;;;5012506;28;20424;-85
2024/01/16 07:20:00;;;;;;;17.03;5.50;;;;;-1.40;96088.00;;;;5014623;28;20436;-85
2024/01/16 07:22:51;;;;;;;111.40;42.40;;;;;-1.00;96090.00;;;;5000408;28;20907;-85
2024/01/16 07:25:40;;;;;;;143.50;90.33;;;;;-1.10;96095.00;;;;4996097;28;20974;-86
2024/01/16 07:28:30;;;;;;;215.43;115.17;;;;;-1.50;96095.00;;;;5006806;28;20434;-84
2024/01/16 07:31:20;;;;;;;105.03;53.37;;;;;-1.30;96093.00;;;;5025011;28;21467;-85
2024/01/16 07:34:09;;;;;;;175.57;60.93;;;;;-1.10;96093.00;;;;5026705;28;20449;-86
2024/01/16 07:36:58;;;;;;;116.53;51.73;;;;;-1.40;96101.00;;;;5012113;28;20856;-85
2024/01/16 07:39:48;;;;;;;109.23;50.87;;;;;-0.90;96101.00;;;;5020699;28;20797;-86
2024/01/16 07:42:37;;;;;;;24.57;8.37;;;;;-0.80;96108.00;;;;5017904;28;20444;-86
2024/01/16 07:45:26;;;;;;;8.30;2.83;;;;;-1.10;96107.00;;;;5019553;28;20937;-85
2024/01/16 07:48:17;;;;;;;84.57;43.73;;;;;-1.10;96112.00;;;;5033257;28;20420;-87
2024/01/16 07:51:06;;;;;;;84.23;45.83;;;;;-0.90;96125.00;;;;5042256;28;20444;-87
2024/01/16 07:54:06;;;;;;;23.77;13.23;;;;;-0.60;96134.00;;;;5026261;28;20421;-87
2024/01/16 07:56:55;;;;;;;78.20;44.80;;;;;-1.10;96097.00;;;;5023235;28;20479;-87
2024/01/16 07:59:45;;;;;;;20.93;8.17;;;;;-0.90;96126.00;;;;5021054;28;20414;-86
2024/01/16 08:02:36;;;;;;;14.70;4.97;;;;;-1.10;96121.00;;;;5013003;28;20559;-88
2024/01/16 08:05:27;;;;;;;7.03;2.60;;;;;-1.10;96124.00;;;;5021184;28;20418;-86
2024/01/16 08:08:16;;;;;;;14.27;4.43;;;;;-0.70;96132.00;;;;5024194;28;20791;-88
2024/01/16 08:11:07;;;;;;;53.33;38.23;;;;;-1.60;96126.00;;;;5028274;28;20455;-87
2024/01/16 08:13:56;;;;;;;18.47;5.63;;;;;-0.90;96120.00;;;;5025769;28;21041;-86
2024/01/16 08:16:45;;;;;;;14.93;4.47;;;;;-1.00;96141.00;;;;5021211;28;20472;-88
2024/01/16 08:19:35;;;;;;;14.03;4.63;;;;;-0.10;96152.00;;;;5020036;28;20850;-88
2024/01/16 08:22:26;;;;;;;33.73;16.63;;;;;-0.30;96147.00;;;;5022317;28;20437;-87
2024/01/16 08:25:15;;;;;;;13.43;4.90;;;;;-0.50;96142.00;;;;5015399;28;20448;-87
2024/01/16 08:28:05;;;;;;;9.13;3.03;;;;;-0.30;96138.00;;;;5022300;28;20455;-87
2024/01/16 08:30:54;;;;;;;23.50;6.90;;;;;-0.20;96141.00;;;;5016381;28;20571;-86
2024/01/16 08:33:43;;;;;;;28.67;8.13;;;;;-0.60;96141.00;;;;5019656;28;20451;-86
2024/01/16 08:36:35;;;;;;;11.50;3.60;;;;;-0.10;96145.00;;;;5023474;28;20483;-85
2024/01/16 08:39:27;;;;;;;15.33;4.87;;;;;0.10;96137.00;;;;5020455;28;20946;-86
2024/01/16 08:42:18;;;;;;;4.50;1.87;;;;;-1.40;96125.00;;;;5023789;28;20968;-85
2024/01/16 08:45:07;;;;;;;19.50;6.20;;;;;0.00;96148.00;;;;5032840;23;20511;-87
2024/01/16 08:47:56;;;;;;;15.80;5.47;;;;;0.30;96141.00;;;;5050512;28;20794;-86
2024/01/16 08:50:47;;;;;;;14.70;5.27;;;;;0.00;96146.00;;;;5045503;28;20458;-85
2024/01/16 08:53:36;;;;;;;13.20;5.13;;;;;0.10;96135.00;;;;5042111;28;20491;-88
2024/01/16 08:56:26;;;;;;;13.20;4.97;;;;;0.30;96137.00;;;;5041633;28;20471;-86
2024/01/16 08:59:16;;;;;;;2.80;2.50;;;;;0.90;96141.00;;;;5035585;28;20424;-87
2024/01/16 09:02:05;;;;;;;13.30;5.77;;;;;1.20;96148.00;;;;5037032;28;20432;-90
2024/01/16 09:04:55;;;;;;;27.37;9.80;;;;;1.20;96146.00;;;;5033182;28;20440;-91
2024/01/16 09:07:47;;;;;;;10.00;4.93;;;;;0.40;96148.00;;;;5035483;28;20429;-88
2024/01/16 09:10:36;;;;;;;13.20;6.77;;;;;0.80;96144.00;;;;5030236;28;20853;-90
2024/01/16 09:13:27;;;;;;;14.23;6.67;;;;;0.80;96156.00;;;;5034577;28;20421;-90
2024/01/16 09:16:16;;;;;;;15.50;8.20;;;;;0.80;96156.00;;;;5035524;28;20455;-91
2024/01/16 09:19:06;;;;;;;21.40;11.33;;;;;1.20;96154.00;;;;5036740;28;20430;-90
2024/01/16 09:21:55;;;;;;;20.87;14.13;;;;;1.20;96154.00;;;;5032462;28;20479;-90
2024/01/16 09:24:44;;;;;;;27.53;17.53;;;;;1.40;96153.00;;;;5034511;28;20431;-89
2024/01/16 09:27:34;;;;;;;71.17;40.30;;;;;1.40;96163.00;;;;5037740;28;20423;-90
2024/01/16 09:30:24;;;;;;;17.80;7.00;;;;;2.10;96159.00;;;;5030921;28;20440;-90
2024/01/16 09:33:15;;;;;;;14.83;4.37;;;;;1.80;96149.00;;;;5036551;28;20427;-90
2024/01/16 09:36:05;;;;;;;29.83;23.50;;;;;1.80;96169.00;;;;5043181;28;20420;-91
2024/01/16 09:38:55;;;;;;;70.70;44.43;;;;;1.80;96166.00;;;;5029480;28;20425;-89
2024/01/16 09:41:45;;;;;;;96.20;54.20;;;;;2.30;96161.00;;;;5037646;28;20450;-90
2024/01/16 09:44:35;;;;;;;195.00;72.37;;;;;2.40;96171.00;;;;5030621;28;20452;-89
2024/01/16 09:47:26;;;;;;;165.40;66.27;;;;;3.10;96178.00;;;;5031627;28;20466;-89
2024/01/16 09:50:17;;;;;;;156.87;66.03;;;;;3.40;96174.00;;;;5031940;28;20460;-90
2024/01/16 09:53:06;;;;;;;108.47;55.23;;;;;3.80;96184.00;;;;5037702;28;20459;-90
2024/01/16 09:55:57;;;;;;;133.73;65.93;;;;;4.20;96177.00;;;;5031915;28;20438;-90
2024/01/16 09:58:46;;;;;;;123.10;59.77;;;;;4.50;96188.00;;;;5028989;28;20421;-89
2024/01/16 10:01:36;;;;;;;140.13;63.30;;;;;4.70;96177.00;;;;5032861;28;20470;-90
2024/01/16 10:04:27;;;;;;;134.63;57.77;;;;;5.00;96183.00;;;;5035214;28;20808;-90
2024/01/16 10:07:18;;;;;;;153.90;67.53;;;;;5.30;96185.00;;;;5032844;28;20950;-89
2024/01/16 10:10:09;;;;;;;165.80;70.53;;;;;5.50;96175.00;;;;5034254;28;20459;-90
2024/01/16 10:12:59;;;;;;;41.30;18.97;;;;;5.60;96171.00;;;;5031215;28;20436;-90
2024/01/16 10:15:52;;;;;;;21.33;6.23;;;;;5.70;96174.00;;;;5033836;28;20428;-87
2024/01/16 10:18:41;;;;;;;20.00;7.87;;;;;6.00;96167.00;;;;5032759;28;20197;-87
2024/01/16 10:21:32;;;;;;;52.23;42.97;;;;;6.20;96173.00;;;;5032838;28;20221;-87
2024/01/16 10:24:21;;;;;;;205.67;73.53;;;;;6.30;96156.00;;;;5031209;28;20749;-87
2024/01/16 10:27:10;;;;;;;131.80;65.23;;;;;6.60;96158.00;;;;5034559;28;20455;-87
2024/01/16 10:30:00;;;;;;;195.87;78.37;;;;;6.30;96150.00;;;;5031763;28;20225;-87
2024/01/16 10:32:49;;;;;;;211.47;85.80;;;;;6.40;96163.00;;;;5034046;28;20444;-87
2024/01/16 10:35:38;;;;;;;263.77;88.97;;;;;6.00;96155.00;;;;5039545;28;20188;-91
2024/01/16 10:38:29;;;;;;;215.27;86.57;;;;;7.90;96166.00;;;;5057905;28;20228;-88
2024/01/16 10:41:21;;;;;;;249.27;88.40;;;;;9.20;96178.00;;;;5043402;28;20311;-88
2024/01/16 10:44:10;;;;;;;259.13;87.67;;;;;10.00;96168.00;;;;5033504;28;20201;-88
2024/01/16 10:47:12;;;;;;;295.50;98.73;;;;;11.20;96175.00;;;;5033937;28;20205;-87
2024/01/16 10:50:01;;;;;;;328.93;109.83;;;;;11.70;96170.00;;;;5032670;28;20595;-88
2024/01/16 10:52:53;;;;;;;273.07;107.07;;;;;9.90;96161.00;;;;5033740;28;20204;-89
2024/01/16 10:55:51;;;;;;;255.63;110.93;;;;;8.70;96148.00;;;;5030814;28;20201;-89
2024/01/16 10:58:43;;;;;;;58.60;53.03;;;;;9.50;96154.00;;;;5035250;28;20310;-89
2024/01/16 11:01:33;;;;;;;213.40;106.37;;;;;9.00;96149.00;;;;5036872;28;20220;-89
2024/01/16 11:04:22;;;;;;;302.67;113.00;;;;;11.00;96156.00;;;;5028406;28;20207;-89
2024/01/16 11:07:11;;;;;;;202.57;107.03;;;;;9.60;96138.00;;;;5036767;28;20201;-87
2024/01/16 11:10:01;;;;;;;197.80;107.50;;;;;8.80;96125.00;;;;5031840;28;20694;-87
2024/01/16 11:12:53;;;;;;;236.10;118.63;;;;;9.70;96126.00;;;;5029330;28;20671;-88
2024/01/16 11:15:43;;;;;;;230.73;118.50;;;;;11.50;96127.00;;;;5030293;28;20207;-88
2024/01/16 11:18:33;;;;;;;275.47;114.77;;;;;12.40;96132.00;;;;5031152;28;20217;-88
2024/01/16 11:21:23;;;;;;;210.27;114.87;;;;;13.50;96127.00;;;;5033573;28;20225;-89
2024/01/16 11:24:12;;;;;;;180.67;95.30;;;;;14.20;96122.00;;;;5029334;28;20214;-88
2024/01/16 11:27:01;;;;;;;265.63;135.77;;;;;12.70;96115.00;;;;5034632;28;20202;-87
2024/01/16 11:29:53;;;;;;;270.20;147.10;;;;;11.40;96101.00;;;;5028457;28;20248;-88
2024/01/16 11:32:44;;;;;;;271.07;145.60;;;;;10.80;96100.00;;;;5027379;28;20212;-88
2024/01/16 11:35:38;;;;;;;272.63;143.10;;;;;12.30;96115.00;;;;5031229;28;20193;-87
2024/01/16 11:38:27;;;;;;;314.70;145.37;;;;;12.10;96111.00;;;;5034479;28;20204;-88
2024/01/16 11:41:53;;;;;;;335.10;136.83;;;;;10.60;96089.00;;;;5031181;28;20265;-88
2024/01/16 11:44:46;;;;;;;351.87;142.30;;;;;9.10;96090.00;;;;5035479;28;20235;-88
2024/01/16 11:47:37;;;;;;;360.80;138.80;;;;;9.50;96092.00;;;;5035517;28;20225;-89
2024/01/16 11:50:31;;;;;;;365.77;129.57;;;;;9.70;96086.00;;;;5038097;28;20257;-88
2024/01/16 11:53:40;;;;;;;365.50;125.17;;;;;9.10;96094.00;;;;5034423;28;20208;-88
2024/01/16 11:57:02;;;;;;;360.90;116.87;;;;;9.00;96105.00;;;;5041854;28;20752;-87
2024/01/16 12:00:12;;;;;;;373.33;121.90;;;;;10.40;96111.00;;;;5042073;28;20711;-88
2024/01/16 12:03:04;;;;;;;295.47;120.60;;;;;10.10;96090.00;;;;5045464;28;20201;-88
2024/01/16 12:05:57;;;;;;;197.47;101.43;;;;;10.90;96105.00;;;;5031701;28;20209;-88
2024/01/16 12:08:46;;;;;;;201.03;107.90;;;;;11.40;96084.00;;;;5036904;28;20224;-88
2024/01/16 12:11:35;;;;;;;245.30;114.33;;;;;11.30;96089.00;;;;5035081;28;20229;-88
2024/01/16 12:14:25;;;;;;;281.57;118.47;;;;;10.60;96088.00;;;;5037445;28;20417;-88
2024/01/16 12:17:15;;;;;;;270.73;123.90;;;;;10.70;96078.00;;;;5044242;28;20201;-87
2024/01/16 12:20:19;;;;;;;275.63;126.53;;;;;10.20;96073.00;;;;5030960;28;20229;-88
2024/01/16 12:23:10;;;;;;;243.83;123.87;;;;;10.10;96078.00;;;;5032256;28;20200;-87
2024/01/16 12:26:03;;;;;;;248.27;126.67;;;;;10.00;96063.00;;;;5031673;28;20239;-88
2024/01/16 12:28:53;;;;;;;238.80;124.87;;;;;10.30;96076.00;;;;5037501;28;20249;-88
2024/01/16 12:31:43;;;;;;;242.43;123.47;;;;;8.80;96080.00;;;;5033974;28;20287;-89
2024/01/16 12:34:33;;;;;;;221.60;117.60;;;;;9.00;96052.00;;;;5042481;28;20197;-88
2024/01/16 12:37:23;;;;;;;233.07;112.87;;;;;10.70;96055.00;;;;5040452;28;20208;-88
2024/01/16 12:40:14;;;;;;;250.17;116.27;;;;;11.00;96050.00;;;;5035741;28;20223;-88
2024/01/16 12:43:04;;;;;;;257.93;120.83;;;;;12.10;96040.00;;;;5039951;28;20247;-88
2024/01/16 12:46:16;;;;;;;266.37;128.47;;;;;11.30;96049.00;;;;5036867;28;20209;-89
2024/01/16 12:49:11;;;;;;;259.80;123.23;;;;;12.20;96044.00;;;;5042689;28;20231;-88
2024/01/16 12:52:20;;;;;;;289.67;129.77;;;;;13.10;96051.00;;;;5035473;28;20205;-88
2024/01/16 12:55:11;;;;;;;284.93;134.10;;;;;11.80;96042.00;;;;5065390;28;20185;-89
2024/01/16 12:58:16;;;;;;;309.83;146.67;;;;;12.00;96057.00;;;;5049415;28;20223;-88
2024/01/16 13:01:25;;;;;;;298.77;147.23;;;;;11.10;96052.00;;;;5033331;28;20239;-88
2024/01/16 13:04:18;;;;;;;316.97;144.97;;;;;11.80;96063.00;;;;5033994;28;20197;-87
2024/01/16 13:07:10;;;;;;;332.03;142.67;;;;;12.20;96073.00;;;;5031511;28;20569;-87
2024/01/16 13:10:15;;;;;;;346.63;149.50;;;;;10.50;96058.00;;;;5032708;28;20228;-88
2024/01/16 13:13:15;;;;;;;345.93;144.83;;;;;11.30;96069.00;;;;5031485;28;20211;-88
2024/01/16 13:16:06;;;;;;;357.33;138.27;;;;;11.20;96068.00;;;;5031549;28;20271;-88
2024/01/16 13:19:04;;;;;;;391.13;135.23;;;;;11.10;96065.00;;;;5032914;28;20217;-88
2024/01/16 13:21:53;;;;;;;396.50;143.93;;;;;11.30;96055.00;;;;5037459;28;20223;-88
2024/01/16 13:24:42;;;;;;;378.50;131.90;;;;;11.60;96050.00;;;;5034402;28;20205;-88
2024/01/16 13:27:36;;;;;;;329.90;128.43;;;;;10.90;96062.00;;;;5036399;28;20768;-89
2024/01/16 13:30:25;;;;;;;366.70;123.00;;;;;9.50;96049.00;;;;5035148;28;20238;-89
2024/01/16 13:33:18;;;;;;;364.93;124.63;;;;;9.80;96052.00;;;;5036433;28;20326;-89
2024/01/16 13:36:08;;;;;;;331.37;118.30;;;;;9.30;96035.00;;;;5032823;28;20678;-89
2024/01/16 13:38:57;;;;;;;385.77;128.87;;;;;10.90;96042.00;;;;5033207;28;20196;-90
2024/01/16 13:41:47;;;;;;;384.03;127.27;;;;;11.70;96029.00;;;;5034471;28;20236;-90
2024/01/16 13:44:38;;;;;;;370.03;132.77;;;;;12.40;96038.00;;;;5034492;28;20315;-89
2024/01/16 13:47:27;;;;;;;369.23;124.67;;;;;13.10;96047.00;;;;5036968;28;20212;-89
2024/01/16 13:50:17;;;;;;;371.83;128.13;;;;;13.80;96056.00;;;;5032518;28;20604;-90
2024/01/16 13:53:07;;;;;;;381.10;142.23;;;;;13.80;96049.00;;;;5034812;28;20208;-89
2024/01/16 13:55:58;;;;;;;392.23;175.43;;;;;13.80;96059.00;;;;5032983;28;20216;-88